Time;durP1;ratioP1;P1;durP2;ratioP2;P2;SDS_P1;SDS_P2;PMS_P1;PMS_P2;Temp;Humidity;BMP_temperature;BMP_pressure;BME280_temperature;BME280_humidity;BME280_pressure;Samples;Min_cycle;Max_cycle;Signal;HPM_P1;HPM_P2
2022/11/13 00:00:36;;;;;;;1.77;1.77;;;11.00;85.80;;;;;;5003409;28;20185;-68
2022/11/13 00:03:02;;;;;;;1.42;1.33;;;11.00;86.70;;;;;;5003540;28;20261;-68
2022/11/13 00:05:27;;;;;;;1.75;1.52;;;10.80;87.50;;;;;;5002156;28;20181;-67
2022/11/13 00:07:53;;;;;;;1.80;1.67;;;10.80;87.20;;;;;;5003731;28;20212;-68
2022/11/13 00:10:19;;;;;;;1.75;1.65;;;10.80;87.30;;;;;;5004492;28;20263;-67
2022/11/13 00:12:45;;;;;;;1.73;1.63;;;10.70;87.70;;;;;;5003146;28;20181;-67
2022/11/13 00:15:10;;;;;;;1.45;1.45;;;10.80;87.60;;;;;;5005597;28;20284;-68
2022/11/13 00:17:36;;;;;;;2.40;1.48;;;10.80;87.40;;;;;;5006305;28;20189;-68
2022/11/13 00:20:03;;;;;;;1.70;1.60;;;10.80;87.50;;;;;;4985069;28;20184;-67
2022/11/13 00:22:28;;;;;;;2.55;2.08;;;10.80;87.00;;;;;;5003658;28;20169;-68
2022/11/13 00:24:54;;;;;;;2.60;2.20;;;10.80;87.30;;;;;;5001768;28;20183;-68
2022/11/13 00:27:20;;;;;;;2.25;2.05;;;10.80;87.40;;;;;;5003427;28;20189;-68
2022/11/13 00:29:45;;;;;;;2.05;1.95;;;10.80;87.40;;;;;;4985027;28;20264;-67
2022/11/13 00:32:11;;;;;;;1.40;1.40;;;10.80;87.30;;;;;;5003581;28;20200;-67
2022/11/13 00:34:36;;;;;;;1.65;1.55;;;10.80;87.50;;;;;;5003781;28;20177;-68
2022/11/13 00:37:02;;;;;;;2.00;1.90;;;10.80;87.60;;;;;;5002973;28;20185;-68
2022/11/13 00:39:28;;;;;;;1.35;1.25;;;10.80;87.30;;;;;;5003048;28;20220;-67
2022/11/13 00:41:53;;;;;;;1.85;1.73;;;10.80;87.40;;;;;;5004665;28;20177;-68
2022/11/13 00:44:19;;;;;;;2.88;2.03;;;10.80;87.40;;;;;;5003011;28;20201;-67
2022/11/13 00:46:45;;;;;;;2.33;2.13;;;10.80;87.50;;;;;;5005348;28;20188;-68
2022/11/13 00:49:11;;;;;;;1.63;1.52;;;10.80;87.70;;;;;;5003453;28;20215;-67
2022/11/13 00:51:37;;;;;;;1.90;1.83;;;10.70;87.90;;;;;;5004419;28;20895;-68
2022/11/13 00:54:03;;;;;;;2.67;2.10;;;10.70;87.80;;;;;;5004436;28;20185;-67
2022/11/13 00:56:29;;;;;;;2.45;2.33;;;10.70;88.00;;;;;;5006393;28;20227;-67
2022/11/13 00:58:54;;;;;;;2.22;2.08;;;10.70;88.00;;;;;;5006839;28;20185;-67
2022/11/13 01:01:20;;;;;;;1.80;1.77;;;10.80;87.90;;;;;;5006133;28;20686;-67
2022/11/13 01:03:46;;;;;;;2.40;2.05;;;10.70;88.10;;;;;;5007501;28;20182;-67
2022/11/13 01:06:22;;;;;;;2.50;2.08;;;10.60;88.60;;;;;;5006277;28;20184;-68
2022/11/13 01:08:48;;;;;;;1.70;1.60;;;10.60;88.50;;;;;;5007883;28;20263;-68
2022/11/13 01:11:17;;;;;;;1.52;1.52;;;10.60;88.50;;;;;;5007270;28;20197;-67
2022/11/13 01:13:44;;;;;;;3.65;2.03;;;10.50;89.00;;;;;;5004905;28;20193;-67
2022/11/13 01:16:12;;;;;;;1.88;1.88;;;10.60;88.90;;;;;;5004508;28;20177;-68
2022/11/13 01:18:40;;;;;;;1.90;1.80;;;10.50;88.80;;;;;;5005773;28;20189;-68
2022/11/13 01:21:12;;;;;;;5.13;1.95;;;10.60;88.90;;;;;;5007485;28;20189;-68
2022/11/13 01:23:38;;;;;;;2.25;2.15;;;10.50;89.30;;;;;;5006536;28;20181;-68
2022/11/13 01:26:14;;;;;;;2.60;2.50;;;10.60;89.10;;;;;;5003625;28;20744;-68
2022/11/13 01:28:41;;;;;;;3.47;2.22;;;10.60;88.60;;;;;;5004446;28;20212;-67
2022/11/13 01:31:09;;;;;;;2.47;2.38;;;10.50;89.10;;;;;;5008183;28;20181;-68
2022/11/13 01:33:35;;;;;;;2.65;2.45;;;10.50;88.90;;;;;;5005012;28;20180;-68
2022/11/13 01:36:04;;;;;;;2.40;2.20;;;10.60;88.60;;;;;;5007675;28;20189;-68
2022/11/13 01:38:30;;;;;;;2.15;2.05;;;10.60;88.60;;;;;;5004779;28;21179;-68
2022/11/13 01:40:56;;;;;;;3.85;2.38;;;10.70;88.20;;;;;;5008020;28;20203;-68
2022/11/13 01:43:31;;;;;;;3.88;2.55;;;10.70;88.00;;;;;;4988400;28;20184;-68
2022/11/13 01:45:57;;;;;;;2.60;2.40;;;10.70;87.70;;;;;;5005054;28;20276;-69
2022/11/13 01:48:41;;;;;;;2.53;2.40;;;10.80;88.10;;;;;;5006888;28;20866;-67
2022/11/13 01:51:30;;;;;;;2.47;2.38;;;10.80;88.10;;;;;;5004522;28;20181;-67
2022/11/13 01:53:56;;;;;;;2.75;2.55;;;10.80;87.60;;;;;;4930217;29;20278;-69
2022/11/13 01:56:22;;;;;;;2.25;2.15;;;10.80;87.90;;;;;;4929684;29;20215;-67
2022/11/13 01:58:56;;;;;;;2.67;2.47;;;10.80;87.80;;;;;;4931840;28;20246;-68
2022/11/13 02:01:21;;;;;;;2.65;2.53;;;10.80;87.50;;;;;;4932589;29;20187;-68
2022/11/13 02:03:47;;;;;;;2.80;2.60;;;10.80;87.90;;;;;;4933482;29;20689;-68
2022/11/13 02:06:13;;;;;;;2.55;2.40;;;10.80;87.80;;;;;;4933517;29;20298;-68
2022/11/13 02:08:39;;;;;;;2.50;2.40;;;10.80;88.10;;;;;;4931336;29;20215;-68
2022/11/13 02:11:05;;;;;;;2.10;2.03;;;10.70;88.00;;;;;;4927110;29;20223;-67
2022/11/13 02:13:32;;;;;;;2.72;2.55;;;10.70;88.00;;;;;;4931204;28;20191;-68
2022/11/13 02:15:58;;;;;;;3.72;2.58;;;10.70;88.10;;;;;;4929204;29;20796;-68
2022/11/13 02:18:26;;;;;;;2.25;2.15;;;10.70;88.10;;;;;;4930430;29;20294;-67
2022/11/13 02:21:00;;;;;;;2.10;2.00;;;10.70;87.80;;;;;;4935931;29;20190;-68
2022/11/13 02:23:44;;;;;;;2.67;2.47;;;10.70;88.10;;;;;;4933430;29;20186;-67
2022/11/13 02:26:11;;;;;;;1.77;1.77;;;10.70;87.40;;;;;;4931081;29;20218;-68
2022/11/13 02:28:37;;;;;;;2.25;2.15;;;10.70;88.20;;;;;;4931416;29;20278;-67
2022/11/13 02:31:10;;;;;;;1.92;1.83;;;10.70;87.90;;;;;;4966670;28;20279;-68
2022/11/13 02:33:36;;;;;;;1.77;1.73;;;10.80;88.00;;;;;;5006050;28;20184;-68
2022/11/13 02:36:03;;;;;;;2.50;2.30;;;10.70;88.10;;;;;;5006136;28;20185;-68
2022/11/13 02:38:29;;;;;;;2.38;2.22;;;10.70;88.20;;;;;;5004478;28;20912;-68
2022/11/13 02:40:55;;;;;;;2.03;1.92;;;10.70;88.10;;;;;;5003904;28;20823;-68
2022/11/13 02:43:20;;;;;;;2.20;2.00;;;10.70;88.20;;;;;;5004561;28;20272;-68
2022/11/13 02:45:46;;;;;;;2.03;1.92;;;10.70;88.30;;;;;;5004230;28;20854;-67
2022/11/13 02:48:12;;;;;;;2.13;2.03;;;10.70;88.40;;;;;;5003141;28;20208;-67
2022/11/13 02:50:38;;;;;;;2.50;2.35;;;10.70;88.30;;;;;;5003063;28;20276;-68
2022/11/13 02:53:04;;;;;;;2.60;2.28;;;10.60;88.80;;;;;;5005308;28;20355;-68
2022/11/13 02:55:30;;;;;;;2.20;2.15;;;10.60;88.80;;;;;;5007407;28;20204;-68
2022/11/13 02:57:55;;;;;;;2.88;2.67;;;10.60;88.80;;;;;;5004624;28;20662;-68
2022/11/13 03:00:21;;;;;;;2.17;2.08;;;10.60;88.90;;;;;;5007182;28;20189;-68
2022/11/13 03:02:46;;;;;;;2.80;2.60;;;10.60;88.50;;;;;;4986665;28;20197;-68
2022/11/13 03:05:12;;;;;;;2.42;2.33;;;10.70;88.60;;;;;;4985270;28;20189;-67
2022/11/13 03:07:38;;;;;;;2.58;2.38;;;10.60;88.90;;;;;;5005255;28;20189;-68
2022/11/13 03:10:04;;;;;;;2.10;2.00;;;10.70;88.70;;;;;;5004173;28;20267;-68
2022/11/13 03:12:29;;;;;;;2.53;2.33;;;10.70;88.50;;;;;;5003834;28;20185;-68
2022/11/13 03:14:55;;;;;;;2.38;2.28;;;10.60;88.80;;;;;;5003608;28;20176;-67
2022/11/13 03:17:21;;;;;;;2.58;2.42;;;10.60;88.80;;;;;;5004159;28;20184;-68
2022/11/13 03:19:46;;;;;;;2.55;2.35;;;10.60;89.00;;;;;;5004935;28;20554;-69
2022/11/13 03:22:12;;;;;;;2.40;2.20;;;10.60;89.10;;;;;;5004843;28;20189;-67
2022/11/13 03:24:38;;;;;;;2.53;2.15;;;10.70;89.00;;;;;;5002673;28;20655;-67
2022/11/13 03:27:03;;;;;;;3.55;2.10;;;10.70;88.80;;;;;;5004103;28;20561;-68
2022/11/13 03:29:29;;;;;;;3.13;2.47;;;10.70;88.90;;;;;;5005506;28;20345;-67
2022/11/13 03:31:55;;;;;;;2.70;2.50;;;10.70;88.50;;;;;;5002543;28;20220;-67
2022/11/13 03:34:20;;;;;;;2.65;2.45;;;10.70;88.80;;;;;;5003987;28;20195;-68
2022/11/13 03:36:46;;;;;;;2.65;2.55;;;10.80;88.70;;;;;;5003280;28;20196;-67
2022/11/13 03:39:12;;;;;;;3.45;3.08;;;10.80;88.60;;;;;;5005529;28;20189;-67
2022/11/13 03:41:37;;;;;;;2.63;2.42;;;10.80;88.60;;;;;;5002213;28;20184;-68
2022/11/13 03:44:03;;;;;;;3.65;2.92;;;10.80;88.50;;;;;;5003501;28;20216;-68
2022/11/13 03:46:28;;;;;;;3.63;2.95;;;10.80;88.50;;;;;;5001411;28;20437;-67
2022/11/13 03:48:54;;;;;;;2.67;2.58;;;10.80;88.60;;;;;;5000719;28;20219;-68
2022/11/13 03:51:20;;;;;;;2.70;2.50;;;10.80;88.70;;;;;;5002151;28;20192;-68
2022/11/13 03:53:45;;;;;;;3.53;2.55;;;10.80;88.90;;;;;;4984995;28;20751;-70
2022/11/13 03:56:11;;;;;;;3.10;2.90;;;10.70;88.90;;;;;;5002351;28;20211;-67
2022/11/13 03:58:38;;;;;;;2.85;2.65;;;10.70;89.00;;;;;;5001393;28;20208;-67
2022/11/13 04:01:03;;;;;;;3.38;3.08;;;10.70;89.00;;;;;;5004806;28;20212;-67
2022/11/13 04:03:29;;;;;;;2.38;2.28;;;10.60;89.20;;;;;;5003038;28;20185;-67
2022/11/13 04:05:55;;;;;;;3.38;2.70;;;10.60;89.40;;;;;;5000744;28;20217;-68
2022/11/13 04:08:20;;;;;;;2.35;2.17;;;10.60;89.50;;;;;;5003807;28;20208;-68
2022/11/13 04:10:46;;;;;;;2.65;2.45;;;10.70;89.20;;;;;;5002659;28;20201;-68
2022/11/13 04:13:12;;;;;;;2.55;2.25;;;10.80;89.10;;;;;;5004456;28;20192;-68
2022/11/13 04:15:37;;;;;;;3.42;2.53;;;10.80;89.00;;;;;;5000678;28;20660;-67
2022/11/13 04:18:03;;;;;;;2.40;2.30;;;10.80;89.00;;;;;;5002849;28;20189;-68
2022/11/13 04:20:29;;;;;;;3.05;2.85;;;10.80;88.90;;;;;;5003991;28;20185;-68
2022/11/13 04:22:56;;;;;;;2.63;2.50;;;10.80;89.10;;;;;;5005979;28;20191;-68
2022/11/13 04:25:22;;;;;;;2.63;2.42;;;10.80;89.10;;;;;;5002644;28;20181;-67
2022/11/13 04:27:49;;;;;;;2.22;2.13;;;10.80;89.10;;;;;;5002224;28;20456;-67
2022/11/13 04:30:14;;;;;;;3.08;2.47;;;10.80;89.00;;;;;;5006023;28;20311;-67
2022/11/13 04:32:40;;;;;;;2.97;2.65;;;10.80;89.20;;;;;;5008599;28;20185;-68
2022/11/13 04:35:07;;;;;;;3.38;3.17;;;10.80;89.10;;;;;;5007158;28;20256;-67
2022/11/13 04:37:32;;;;;;;3.03;2.83;;;10.80;89.10;;;;;;5008045;28;20684;-68
2022/11/13 04:39:58;;;;;;;2.97;2.67;;;10.80;89.30;;;;;;5008666;28;20189;-68
2022/11/13 04:45:08;;;;;;;3.75;3.40;;;10.70;89.50;;;;;;5007709;28;20212;-67
2022/11/13 04:47:34;;;;;;;4.85;3.58;;;10.80;89.40;;;;;;5007731;28;20268;-68
2022/11/13 04:50:00;;;;;;;4.00;3.70;;;10.70;89.80;;;;;;5005307;28;20299;-68
2022/11/13 04:52:27;;;;;;;4.15;3.85;;;10.60;90.10;;;;;;5006869;28;20271;-68
2022/11/13 04:54:53;;;;;;;4.63;4.10;;;10.60;90.20;;;;;;5007158;28;20284;-68
2022/11/13 04:57:19;;;;;;;5.28;4.40;;;10.60;90.40;;;;;;5007847;28;20643;-68
2022/11/13 04:59:45;;;;;;;5.38;4.57;;;10.60;90.30;;;;;;5006074;28;20181;-67
2022/11/13 05:02:11;;;;;;;5.80;4.53;;;10.60;90.10;;;;;;5005183;28;20201;-68
2022/11/13 05:04:36;;;;;;;6.30;4.78;;;10.60;90.00;;;;;;5005900;28;20173;-67
2022/11/13 05:07:02;;;;;;;8.55;4.97;;;10.60;90.20;;;;;;5007593;28;20181;-67
2022/11/13 05:09:28;;;;;;;6.13;5.40;;;10.60;90.00;;;;;;5005823;28;20209;-68
2022/11/13 05:11:53;;;;;;;5.95;5.32;;;10.60;90.00;;;;;;5007271;28;20656;-68
2022/11/13 05:14:19;;;;;;;5.47;4.97;;;10.60;89.90;;;;;;5008224;28;20190;-68
2022/11/13 05:16:45;;;;;;;7.45;5.25;;;10.70;89.90;;;;;;5008626;28;20248;-68
2022/11/13 05:19:10;;;;;;;5.75;4.78;;;10.70;89.90;;;;;;5008836;28;20185;-68
2022/11/13 05:21:38;;;;;;;6.90;5.03;;;10.70;89.70;;;;;;5004951;28;20188;-68
2022/11/13 05:24:04;;;;;;;6.50;5.13;;;10.60;90.10;;;;;;4987705;28;20185;-67
2022/11/13 05:26:30;;;;;;;5.22;4.72;;;10.70;89.80;;;;;;5002815;28;20927;-68
2022/11/13 05:28:59;;;;;;;5.38;4.50;;;10.60;89.90;;;;;;5001233;28;20557;-68
2022/11/13 05:31:26;;;;;;;5.53;4.57;;;10.60;89.90;;;;;;5005681;28;20185;-69
2022/11/13 05:33:52;;;;;;;7.32;5.13;;;10.60;89.90;;;;;;5003355;28;20243;-68
2022/11/13 05:36:18;;;;;;;5.50;4.95;;;10.70;89.60;;;;;;5004390;28;20192;-68
2022/11/13 05:38:44;;;;;;;8.93;6.05;;;10.70;89.80;;;;;;5003082;28;20729;-69
2022/11/13 05:41:11;;;;;;;5.20;4.63;;;10.70;89.80;;;;;;5002651;28;20181;-68
2022/11/13 05:43:37;;;;;;;7.13;5.18;;;10.80;89.80;;;;;;5005222;28;20196;-69
2022/11/13 05:46:04;;;;;;;5.95;4.95;;;10.80;89.60;;;;;;5004803;28;20185;-68
2022/11/13 05:48:30;;;;;;;6.97;5.03;;;10.70;89.70;;;;;;5002681;28;20216;-68
2022/11/13 05:51:09;;;;;;;7.32;5.30;;;10.70;89.60;;;;;;5003709;28;20185;-68
2022/11/13 05:53:36;;;;;;;8.95;5.80;;;10.80;89.20;;;;;;5003199;28;20687;-68
2022/11/13 05:56:05;;;;;;;8.82;5.40;;;10.80;89.50;;;;;;5003323;28;20201;-68
2022/11/13 05:58:32;;;;;;;5.80;4.50;;;10.80;89.40;;;;;;5004309;28;20193;-68
2022/11/13 06:01:28;;;;;;;6.57;4.50;;;10.90;89.30;;;;;;5004678;28;20606;-68
2022/11/13 06:03:56;;;;;;;7.75;6.25;;;10.90;88.90;;;;;;4983350;28;20653;-68
2022/11/13 06:06:23;;;;;;;6.97;5.32;;;10.90;89.10;;;;;;4999264;28;20564;-69
2022/11/13 06:08:50;;;;;;;7.47;5.45;;;10.90;88.90;;;;;;5000696;28;20216;-68
2022/11/13 06:11:19;;;;;;;6.75;5.25;;;11.00;88.80;;;;;;5000799;28;20201;-69
2022/11/13 06:13:45;;;;;;;7.70;6.05;;;10.90;88.80;;;;;;5001733;28;20568;-69
2022/11/13 06:16:13;;;;;;;7.13;5.70;;;10.90;88.70;;;;;;4993703;28;20243;-69
2022/11/13 06:18:40;;;;;;;6.40;5.05;;;10.90;88.60;;;;;;4986027;28;20276;-69
2022/11/13 06:21:12;;;;;;;5.20;4.78;;;10.90;88.60;;;;;;5002991;28;20180;-68
2022/11/13 06:23:39;;;;;;;8.88;5.60;;;10.90;88.40;;;;;;5003010;28;20173;-68
2022/11/13 06:26:16;;;;;;;8.02;5.65;;;10.90;88.50;;;;;;5001792;28;20184;-70
2022/11/13 06:28:42;;;;;;;8.15;5.65;;;10.90;88.40;;;;;;5003222;28;20219;-70
2022/11/13 06:31:11;;;;;;;6.55;5.03;;;11.00;88.50;;;;;;5005811;28;20181;-70
2022/11/13 06:33:37;;;;;;;7.60;5.68;;;11.00;88.30;;;;;;5004609;28;20255;-70
2022/11/13 06:36:05;;;;;;;7.13;5.55;;;11.00;88.20;;;;;;5003332;28;20212;-71
2022/11/13 06:38:35;;;;;;;6.63;4.85;;;11.00;88.10;;;;;;5005302;28;20181;-71
2022/11/13 06:41:01;;;;;;;9.55;5.72;;;11.00;88.20;;;;;;5004023;28;20177;-71
2022/11/13 06:43:27;;;;;;;10.82;5.95;;;11.00;88.30;;;;;;5005548;28;20198;-70
2022/11/13 06:45:54;;;;;;;5.80;5.07;;;11.00;88.20;;;;;;5003645;28;20184;-71
2022/11/13 06:48:20;;;;;;;8.73;5.85;;;11.10;88.30;;;;;;5003491;28;20714;-70
2022/11/13 06:50:46;;;;;;;7.82;5.03;;;11.10;88.30;;;;;;4984944;28;20181;-69
2022/11/13 06:53:12;;;;;;;5.32;4.50;;;11.20;88.10;;;;;;5005006;28;20181;-70
2022/11/13 06:55:45;;;;;;;7.30;5.25;;;11.30;88.10;;;;;;5003645;28;20277;-69
2022/11/13 06:58:11;;;;;;;8.93;5.20;;;11.30;87.60;;;;;;5004104;28;20212;-72
2022/11/13 07:00:37;;;;;;;8.93;5.72;;;11.40;87.50;;;;;;5005037;28;20188;-69
2022/11/13 07:03:02;;;;;;;10.18;5.53;;;11.40;87.10;;;;;;5005808;28;20184;-70
2022/11/13 07:05:28;;;;;;;7.65;5.10;;;11.50;87.00;;;;;;4985044;28;20192;-71
2022/11/13 07:07:53;;;;;;;7.63;5.55;;;11.50;87.10;;;;;;5003872;28;20189;-70
2022/11/13 07:10:19;;;;;;;7.38;6.20;;;11.50;86.80;;;;;;5004774;28;20252;-72
2022/11/13 07:12:45;;;;;;;8.65;6.22;;;11.50;86.40;;;;;;5006541;28;20267;-71
2022/11/13 07:15:10;;;;;;;6.38;5.57;;;11.40;86.30;;;;;;5004633;28;20188;-71
2022/11/13 07:17:36;;;;;;;8.02;5.68;;;11.30;86.40;;;;;;5004041;28;20188;-69
2022/11/13 07:20:03;;;;;;;7.00;5.13;;;11.20;86.40;;;;;;5004843;28;20251;-71
2022/11/13 07:22:29;;;;;;;7.38;5.28;;;11.30;86.50;;;;;;5003412;28;20185;-70
2022/11/13 07:24:55;;;;;;;6.50;5.15;;;11.40;86.00;;;;;;5004560;28;21675;-70
2022/11/13 07:27:21;;;;;;;6.13;5.53;;;11.40;85.90;;;;;;5005044;28;20188;-71
2022/11/13 07:29:47;;;;;;;5.95;5.35;;;11.40;86.20;;;;;;5002349;28;20215;-71
2022/11/13 07:32:12;;;;;;;10.65;6.25;;;11.40;86.10;;;;;;5005713;28;20185;-70
2022/11/13 07:34:38;;;;;;;5.70;4.60;;;11.40;86.20;;;;;;5003715;28;20173;-71
2022/11/13 07:37:07;;;;;;;6.15;5.28;;;11.40;86.00;;;;;;5001816;28;20189;-70
2022/11/13 07:39:32;;;;;;;5.90;5.30;;;11.40;86.00;;;;;;4987120;28;20184;-70
2022/11/13 07:41:58;;;;;;;8.50;6.15;;;11.40;86.10;;;;;;5003551;28;20185;-70
2022/11/13 07:44:24;;;;;;;10.38;5.72;;;11.30;86.20;;;;;;5001910;28;20259;-71
2022/11/13 07:46:49;;;;;;;9.00;6.28;;;11.40;86.30;;;;;;5002466;28;20193;-71
2022/11/13 07:49:15;;;;;;;6.72;5.63;;;11.50;86.20;;;;;;5002147;28;20208;-71
2022/11/13 07:51:40;;;;;;;7.13;5.43;;;11.50;86.20;;;;;;5005656;28;20183;-71
2022/11/13 07:54:06;;;;;;;9.35;5.63;;;11.60;85.90;;;;;;5003135;28;20259;-71
2022/11/13 07:56:32;;;;;;;7.82;6.03;;;11.60;85.60;;;;;;4985699;28;20199;-72
2022/11/13 07:58:58;;;;;;;8.85;6.05;;;11.50;85.70;;;;;;5000832;28;20185;-70
2022/11/13 08:01:23;;;;;;;7.13;5.65;;;11.50;85.80;;;;;;5002944;28;20664;-71
2022/11/13 08:03:49;;;;;;;8.68;6.03;;;11.60;85.40;;;;;;5003894;28;20185;-71
2022/11/13 08:06:15;;;;;;;8.55;5.78;;;11.60;86.00;;;;;;5007415;28;20185;-72
2022/11/13 08:08:40;;;;;;;8.98;6.38;;;11.60;85.20;;;;;;5004983;28;20295;-72
2022/11/13 08:11:08;;;;;;;7.82;6.22;;;11.70;85.30;;;;;;5004917;28;20729;-70
2022/11/13 08:13:34;;;;;;;9.38;5.90;;;11.80;85.40;;;;;;5004425;28;20187;-71
2022/11/13 08:16:01;;;;;;;8.00;6.28;;;11.80;84.90;;;;;;5002957;28;20184;-73
2022/11/13 08:18:28;;;;;;;9.48;5.93;;;11.90;84.80;;;;;;5003154;28;20185;-71
2022/11/13 08:20:54;;;;;;;10.68;6.07;;;11.90;84.70;;;;;;5006954;28;20181;-71
2022/11/13 08:23:20;;;;;;;8.27;5.95;;;11.90;84.50;;;;;;5003291;28;21003;-71
2022/11/13 08:25:46;;;;;;;8.45;5.93;;;11.90;84.10;;;;;;5005515;28;20180;-72
2022/11/13 08:28:12;;;;;;;6.93;5.82;;;11.80;84.00;;;;;;4988005;28;20224;-71
2022/11/13 08:30:41;;;;;;;8.77;6.50;;;11.70;84.50;;;;;;5007051;28;20189;-71
2022/11/13 08:33:07;;;;;;;9.02;6.97;;;11.70;84.30;;;;;;5008570;28;20180;-72
2022/11/13 08:35:32;;;;;;;9.50;6.97;;;11.80;84.50;;;;;;5004699;28;20651;-72
2022/11/13 08:38:06;;;;;;;9.25;6.85;;;11.80;84.40;;;;;;5008869;28;20651;-72
2022/11/13 08:40:33;;;;;;;8.32;6.15;;;11.90;84.20;;;;;;5007670;28;20184;-73
2022/11/13 08:43:00;;;;;;;7.32;6.63;;;12.00;84.00;;;;;;5004783;28;20268;-72
2022/11/13 08:45:27;;;;;;;9.52;6.68;;;11.90;83.70;;;;;;5004688;28;20212;-73
2022/11/13 08:47:52;;;;;;;8.38;6.50;;;11.90;83.90;;;;;;4988212;28;20662;-73
2022/11/13 08:50:18;;;;;;;7.93;6.57;;;11.90;84.00;;;;;;5005583;28;20251;-73
2022/11/13 08:52:44;;;;;;;10.20;7.20;;;11.90;84.00;;;;;;5005134;28;20276;-73
2022/11/13 08:55:09;;;;;;;6.43;5.82;;;12.00;84.00;;;;;;5009587;28;20197;-73
2022/11/13 08:57:35;;;;;;;8.57;7.55;;;12.00;84.20;;;;;;5004014;28;20212;-72
2022/11/13 09:00:01;;;;;;;9.18;6.78;;;12.00;84.00;;;;;;5005112;28;20321;-72
2022/11/13 09:02:27;;;;;;;12.05;6.82;;;12.00;84.00;;;;;;5007259;28;20618;-71
2022/11/13 09:04:52;;;;;;;8.95;7.25;;;12.10;83.90;;;;;;5005378;28;20185;-72
2022/11/13 09:07:18;;;;;;;10.13;6.78;;;12.10;83.60;;;;;;4986242;28;20189;-73
2022/11/13 09:09:44;;;;;;;11.27;6.88;;;12.10;83.90;;;;;;5003308;28;20702;-71
2022/11/13 09:12:10;;;;;;;9.73;6.95;;;12.10;83.80;;;;;;5000236;28;20754;-72
2022/11/13 09:14:36;;;;;;;10.68;6.88;;;12.20;83.40;;;;;;5002161;28;20557;-70
2022/11/13 09:17:02;;;;;;;9.38;6.72;;;12.20;83.20;;;;;;5002306;28;20185;-71
2022/11/13 09:19:28;;;;;;;10.82;7.40;;;12.20;83.20;;;;;;5005912;28;20192;-71
2022/11/13 09:21:53;;;;;;;11.50;7.95;;;12.10;83.30;;;;;;5004102;28;20181;-72
2022/11/13 09:24:19;;;;;;;7.60;6.82;;;12.10;83.70;;;;;;5005899;28;20196;-71
2022/11/13 09:26:45;;;;;;;13.38;8.07;;;12.10;83.70;;;;;;5004748;28;20184;-71
2022/11/13 09:29:10;;;;;;;10.80;7.88;;;12.20;84.10;;;;;;5003953;28;20216;-70
2022/11/13 09:31:39;;;;;;;10.10;7.03;;;12.30;83.90;;;;;;5003387;28;20268;-71
2022/11/13 09:34:06;;;;;;;11.75;7.97;;;12.40;83.80;;;;;;5004411;28;20242;-71
2022/11/13 09:36:32;;;;;;;12.23;7.57;;;12.50;83.20;;;;;;5003991;28;20181;-72
2022/11/13 09:38:59;;;;;;;11.07;7.85;;;12.70;82.60;;;;;;5004676;28;20199;-71
2022/11/13 09:41:28;;;;;;;11.10;8.48;;;12.80;82.70;;;;;;4986555;28;20569;-72
2022/11/13 09:43:58;;;;;;;10.48;7.03;;;12.90;83.00;;;;;;5005175;28;20173;-71
2022/11/13 09:46:46;;;;;;;9.73;7.07;;;13.10;83.00;;;;;;5005016;28;20272;-71
2022/11/13 09:49:17;;;;;;;8.70;7.32;;;13.50;81.90;;;;;;4984384;28;20981;-71
2022/11/13 09:52:11;;;;;;;9.48;7.30;;;14.00;80.70;;;;;;5001371;28;20588;-70
2022/11/13 09:54:37;;;;;;;7.90;7.07;;;14.60;79.50;;;;;;4999207;28;20201;-70
2022/11/13 09:57:17;;;;;;;14.63;8.15;;;15.10;78.70;;;;;;5002839;28;20192;-71
2022/11/13 09:59:52;;;;;;;8.40;7.43;;;15.70;78.50;;;;;;4999568;28;20967;-71
2022/11/13 10:02:51;;;;;;;10.80;8.10;;;16.40;76.20;;;;;;5005110;28;20187;-72
2022/11/13 10:05:26;;;;;;;8.82;7.70;;;16.90;73.80;;;;;;5001813;28;20255;-71
2022/11/13 10:08:20;;;;;;;10.48;8.00;;;17.20;74.10;;;;;;5002866;28;20658;-71
2022/11/13 10:11:01;;;;;;;11.82;8.75;;;17.40;72.70;;;;;;4942442;28;20218;-71
2022/11/13 10:13:49;;;;;;;12.02;9.00;;;17.50;72.70;;;;;;4940544;28;20737;-71
2022/11/13 10:16:36;;;;;;;14.63;8.52;;;17.50;71.30;;;;;;4938768;28;20199;-71
2022/11/13 10:19:14;;;;;;;9.13;8.05;;;17.40;71.10;;;;;;4939025;28;20645;-69
2022/11/13 10:22:04;;;;;;;8.95;7.85;;;17.30;71.50;;;;;;4943744;28;20257;-69
2022/11/13 10:24:48;;;;;;;9.75;7.68;;;17.20;71.60;;;;;;4942580;28;20206;-69
2022/11/13 10:27:15;;;;;;;11.55;8.10;;;16.70;70.70;;;;;;4945369;28;20202;-70
2022/11/13 10:29:41;;;;;;;12.70;8.82;;;16.40;71.70;;;;;;4944715;28;20219;-70
2022/11/13 10:32:14;;;;;;;11.73;8.23;;;16.20;72.60;;;;;;4937774;28;20194;-69
2022/11/13 10:34:42;;;;;;;10.88;8.35;;;16.10;72.90;;;;;;4936826;28;20974;-70
2022/11/13 10:37:22;;;;;;;9.10;6.93;;;16.00;72.90;;;;;;4941445;28;20186;-70
2022/11/13 10:39:50;;;;;;;8.15;7.35;;;15.90;72.70;;;;;;4939020;28;20191;-72
2022/11/13 10:42:27;;;;;;;9.43;7.03;;;15.70;73.30;;;;;;4943367;28;20286;-71
2022/11/13 10:44:57;;;;;;;9.52;7.88;;;15.60;73.80;;;;;;4943976;28;21271;-69
2022/11/13 10:47:25;;;;;;;9.52;7.30;;;15.50;73.70;;;;;;4979334;28;20197;-74
2022/11/13 10:49:51;;;;;;;9.50;7.68;;;15.40;73.70;;;;;;5004248;28;20209;-70
2022/11/13 10:52:19;;;;;;;13.80;8.57;;;15.30;74.40;;;;;;5004161;28;20199;-71
2022/11/13 10:54:44;;;;;;;9.68;7.90;;;15.30;74.60;;;;;;5006065;28;20207;-70
2022/11/13 10:57:24;;;;;;;9.20;6.70;;;15.30;73.40;;;;;;5004864;28;20180;-69
2022/11/13 10:59:50;;;;;;;9.98;7.95;;;15.20;73.60;;;;;;5006141;28;20216;-70
2022/11/13 11:02:24;;;;;;;10.07;8.20;;;15.10;74.00;;;;;;5004380;28;20366;-70
2022/11/13 11:05:19;;;;;;;10.23;8.32;;;15.10;74.40;;;;;;5003987;28;20278;-70
2022/11/13 11:07:45;;;;;;;10.25;8.02;;;15.00;74.60;;;;;;5002972;28;20185;-70
2022/11/13 11:10:25;;;;;;;9.45;7.70;;;14.90;74.40;;;;;;5002039;28;20209;-70
2022/11/13 11:12:56;;;;;;;10.18;8.95;;;14.80;74.80;;;;;;5005777;28;20248;-70
2022/11/13 11:15:31;;;;;;;12.38;8.80;;;14.70;75.10;;;;;;5002805;28;20818;-69
2022/11/13 11:18:01;;;;;;;8.82;7.70;;;14.70;75.20;;;;;;5004004;28;20543;-69
2022/11/13 11:20:42;;;;;;;12.13;8.50;;;14.70;75.40;;;;;;5003369;28;20207;-71
2022/11/13 11:23:42;;;;;;;12.98;9.15;;;14.60;75.50;;;;;;5002570;28;20603;-70
2022/11/13 11:26:18;;;;;;;9.75;7.50;;;14.60;75.60;;;;;;5003384;28;20177;-70
2022/11/13 11:28:50;;;;;;;8.73;7.70;;;14.60;75.50;;;;;;5004517;28;20227;-71
2022/11/13 11:31:22;;;;;;;11.55;8.43;;;14.60;75.60;;;;;;5003680;28;20264;-70
2022/11/13 11:33:51;;;;;;;11.55;8.75;;;14.70;75.30;;;;;;5005540;28;20180;-71
2022/11/13 11:36:24;;;;;;;10.27;8.38;;;14.70;75.20;;;;;;5004382;28;20193;-70
2022/11/13 11:39:09;;;;;;;9.73;8.02;;;14.70;75.30;;;;;;5005193;28;20193;-69
2022/11/13 11:41:45;;;;;;;9.27;8.25;;;14.60;75.00;;;;;;5003553;28;20913;-70
2022/11/13 11:44:18;;;;;;;10.27;8.63;;;14.50;75.10;;;;;;5003985;28;20181;-70
2022/11/13 11:46:44;;;;;;;11.95;8.60;;;14.40;75.50;;;;;;5003621;28;20196;-70
2022/11/13 11:49:10;;;;;;;8.48;7.35;;;14.40;75.60;;;;;;5004614;28;21016;-69
2022/11/13 11:52:06;;;;;;;11.73;8.55;;;14.40;75.80;;;;;;5005223;28;20243;-69
2022/11/13 11:54:47;;;;;;;10.18;8.25;;;14.40;75.50;;;;;;4952882;28;20816;-70
2022/11/13 11:57:36;;;;;;;12.00;8.73;;;14.30;75.90;;;;;;4953336;28;20708;-70
2022/11/13 12:00:21;;;;;;;9.27;7.25;;;14.30;76.10;;;;;;4948863;28;20194;-70
2022/11/13 12:02:52;;;;;;;11.75;9.10;;;14.30;75.90;;;;;;4955050;28;20194;-70
2022/11/13 12:05:28;;;;;;;12.15;8.70;;;14.40;75.70;;;;;;4947344;28;20199;-70
2022/11/13 12:08:15;;;;;;;11.98;8.85;;;14.40;75.40;;;;;;4949654;28;20190;-70
2022/11/13 12:11:02;;;;;;;16.38;9.15;;;14.40;75.50;;;;;;4948953;28;20374;-70
2022/11/13 12:13:49;;;;;;;10.63;8.10;;;14.30;75.90;;;;;;4947540;28;20205;-70
2022/11/13 12:16:52;;;;;;;9.55;8.05;;;14.40;75.70;;;;;;4942675;28;20210;-70
2022/11/13 12:19:45;;;;;;;10.90;8.30;;;14.30;75.70;;;;;;4949760;28;20297;-70
2022/11/13 12:22:29;;;;;;;12.45;8.75;;;14.30;75.50;;;;;;4948482;28;20289;-70
2022/11/13 12:24:58;;;;;;;11.55;8.27;;;14.30;76.10;;;;;;4946991;28;20191;-69
2022/11/13 12:27:29;;;;;;;8.93;7.45;;;14.30;75.80;;;;;;4952643;28;20696;-71
2022/11/13 12:30:24;;;;;;;10.18;8.07;;;14.30;75.60;;;;;;4950961;28;20260;-70
2022/11/13 12:33:11;;;;;;;11.80;7.55;;;14.40;75.80;;;;;;4930598;29;20204;-70
2022/11/13 12:35:38;;;;;;;12.93;9.00;;;14.40;75.90;;;;;;4928312;29;20314;-70
2022/11/13 12:38:06;;;;;;;12.02;8.30;;;14.40;76.10;;;;;;4930713;29;20195;-70
2022/11/13 12:40:56;;;;;;;11.55;8.20;;;14.50;76.00;;;;;;4933011;29;20192;-70
2022/11/13 12:43:30;;;;;;;11.65;8.48;;;14.50;75.80;;;;;;4928430;29;20239;-69
2022/11/13 12:46:05;;;;;;;10.23;7.68;;;14.50;76.10;;;;;;4928892;29;20194;-70
2022/11/13 12:48:41;;;;;;;7.82;7.03;;;14.60;75.90;;;;;;4930199;29;20351;-69
2022/11/13 12:51:12;;;;;;;10.32;7.95;;;14.70;75.90;;;;;;4936043;29;20807;-70
2022/11/13 12:53:49;;;;;;;11.90;7.05;;;14.70;75.60;;;;;;4934268;29;20769;-70
2022/11/13 12:56:25;;;;;;;11.75;8.75;;;14.80;75.50;;;;;;4937654;29;20206;-69
2022/11/13 12:59:13;;;;;;;13.80;9.02;;;14.90;75.70;;;;;;4920566;29;20187;-69